sensor_id;sensor_type;location;lat;lon;timestamp;temperature;humidity
23755;DHT22;12057;52.042;6.830;2023-05-21T00:02:44;16.30;99.90
23755;DHT22;12057;52.042;6.830;2023-05-21T00:07:45;16.20;99.90
23755;DHT22;12057;52.042;6.830;2023-05-21T00:12:46;16.00;99.90
23755;DHT22;12057;52.042;6.830;2023-05-21T00:17:47;16.00;99.90
23755;DHT22;12057;52.042;6.830;2023-05-21T00:22:48;16.00;99.90
23755;DHT22;12057;52.042;6.830;2023-05-21T00:27:48;16.00;99.90
23755;DHT22;12057;52.042;6.830;2023-05-21T00:32:49;16.00;99.90
23755;DHT22;12057;52.042;6.830;2023-05-21T00:37:50;15.90;99.90
23755;DHT22;12057;52.042;6.830;2023-05-21T00:42:53;15.80;99.90
23755;DHT22;12057;52.042;6.830;2023-05-21T00:47:56;15.80;99.90
23755;DHT22;12057;52.042;6.830;2023-05-21T00:52:57;15.70;99.90
23755;DHT22;12057;52.042;6.830;2023-05-21T00:57:58;15.80;99.90
23755;DHT22;12057;52.042;6.830;2023-05-21T01:03:00;15.70;99.90
23755;DHT22;12057;52.042;6.830;2023-05-21T01:08:01;15.70;99.90
23755;DHT22;12057;52.042;6.830;2023-05-21T01:13:02;15.70;99.90
23755;DHT22;12057;52.042;6.830;2023-05-21T01:18:03;15.60;99.90
23755;DHT22;12057;52.042;6.830;2023-05-21T01:23:04;15.40;99.90
23755;DHT22;12057;52.042;6.830;2023-05-21T01:28:08;15.40;99.90
23755;DHT22;12057;52.042;6.830;2023-05-21T01:38:42;15.40;99.90
23755;DHT22;12057;52.042;6.830;2023-05-21T01:43:47;15.20;99.90
23755;DHT22;12057;52.042;6.830;2023-05-21T01:48:49;15.20;99.90
23755;DHT22;12057;52.042;6.830;2023-05-21T01:53:50;15.10;99.90
23755;DHT22;12057;52.042;6.830;2023-05-21T01:58:51;15.10;99.90
23755;DHT22;12057;52.042;6.830;2023-05-21T02:03:52;15.00;99.90
23755;DHT22;12057;52.042;6.830;2023-05-21T02:08:53;15.10;99.90
23755;DHT22;12057;52.042;6.830;2023-05-21T02:13:55;14.90;99.90
23755;DHT22;12057;52.042;6.830;2023-05-21T02:18:56;14.80;99.90
23755;DHT22;12057;52.042;6.830;2023-05-21T02:23:59;14.80;99.90
23755;DHT22;12057;52.042;6.830;2023-05-21T02:29:00;14.70;99.90
23755;DHT22;12057;52.042;6.830;2023-05-21T02:34:01;14.70;99.90
23755;DHT22;12057;52.042;6.830;2023-05-21T02:39:02;14.50;99.90
23755;DHT22;12057;52.042;6.830;2023-05-21T02:44:02;14.50;99.90
23755;DHT22;12057;52.042;6.830;2023-05-21T02:49:03;14.50;99.90
23755;DHT22;12057;52.042;6.830;2023-05-21T02:54:04;14.60;99.90
23755;DHT22;12057;52.042;6.830;2023-05-21T02:59:05;14.60;99.90
23755;DHT22;12057;52.042;6.830;2023-05-21T03:04:06;14.50;99.90
23755;DHT22;12057;52.042;6.830;2023-05-21T03:09:07;14.40;99.90
23755;DHT22;12057;52.042;6.830;2023-05-21T03:14:07;14.30;99.90
23755;DHT22;12057;52.042;6.830;2023-05-21T03:19:09;14.40;99.90
23755;DHT22;12057;52.042;6.830;2023-05-21T03:24:10;14.40;99.90
23755;DHT22;12057;52.042;6.830;2023-05-21T03:29:13;14.40;99.90
23755;DHT22;12057;52.042;6.830;2023-05-21T03:34:13;14.30;99.90
23755;DHT22;12057;52.042;6.830;2023-05-21T03:39:15;14.40;99.90
23755;DHT22;12057;52.042;6.830;2023-05-21T03:44:16;14.30;99.90
23755;DHT22;12057;52.042;6.830;2023-05-21T03:49:17;14.40;99.90
23755;DHT22;12057;52.042;6.830;2023-05-21T03:54:17;14.40;99.90
23755;DHT22;12057;52.042;6.830;2023-05-21T03:59:18;14.50;99.90
23755;DHT22;12057;52.042;6.830;2023-05-21T04:04:19;14.30;99.90
23755;DHT22;12057;52.042;6.830;2023-05-21T04:09:20;14.30;99.90
23755;DHT22;12057;52.042;6.830;2023-05-21T04:14:21;14.40;99.90
23755;DHT22;12057;52.042;6.830;2023-05-21T04:19:22;14.40;99.90
23755;DHT22;12057;52.042;6.830;2023-05-21T04:24:23;14.40;99.90
23755;DHT22;12057;52.042;6.830;2023-05-21T04:29:24;14.30;99.90
23755;DHT22;12057;52.042;6.830;2023-05-21T04:34:25;14.30;99.90
23755;DHT22;12057;52.042;6.830;2023-05-21T04:39:26;14.50;99.90
23755;DHT22;12057;52.042;6.830;2023-05-21T04:44:28;14.40;99.90
23755;DHT22;12057;52.042;6.830;2023-05-21T04:49:29;14.50;99.90
23755;DHT22;12057;52.042;6.830;2023-05-21T04:54:30;14.40;99.90
23755;DHT22;12057;52.042;6.830;2023-05-21T04:59:31;14.50;99.90
23755;DHT22;12057;52.042;6.830;2023-05-21T05:04:31;14.40;99.90
23755;DHT22;12057;52.042;6.830;2023-05-21T05:09:32;14.50;99.90
23755;DHT22;12057;52.042;6.830;2023-05-21T05:14:33;14.60;99.90
23755;DHT22;12057;52.042;6.830;2023-05-21T05:19:33;14.60;99.90
23755;DHT22;12057;52.042;6.830;2023-05-21T05:24:34;14.70;99.90
23755;DHT22;12057;52.042;6.830;2023-05-21T05:29:35;14.90;99.90
23755;DHT22;12057;52.042;6.830;2023-05-21T05:34:36;15.00;99.90
23755;DHT22;12057;52.042;6.830;2023-05-21T05:39:37;15.00;99.90
23755;DHT22;12057;52.042;6.830;2023-05-21T05:44:38;15.00;99.90
23755;DHT22;12057;52.042;6.830;2023-05-21T05:49:39;14.90;99.90
23755;DHT22;12057;52.042;6.830;2023-05-21T05:54:40;15.10;99.90
23755;DHT22;12057;52.042;6.830;2023-05-21T05:59:41;15.10;99.90
23755;DHT22;12057;52.042;6.830;2023-05-21T06:04:42;15.30;99.90
23755;DHT22;12057;52.042;6.830;2023-05-21T06:09:46;15.30;99.90
23755;DHT22;12057;52.042;6.830;2023-05-21T06:14:46;15.40;99.90
23755;DHT22;12057;52.042;6.830;2023-05-21T06:19:48;15.40;99.90
23755;DHT22;12057;52.042;6.830;2023-05-21T06:24:49;15.40;99.90
23755;DHT22;12057;52.042;6.830;2023-05-21T06:29:50;15.30;99.90
23755;DHT22;12057;52.042;6.830;2023-05-21T06:34:52;15.70;99.90
23755;DHT22;12057;52.042;6.830;2023-05-21T06:39:53;15.70;99.90
23755;DHT22;12057;52.042;6.830;2023-05-21T06:44:54;15.90;99.90
23755;DHT22;12057;52.042;6.830;2023-05-21T06:49:54;16.00;99.90
23755;DHT22;12057;52.042;6.830;2023-05-21T06:54:55;16.20;99.90
23755;DHT22;12057;52.042;6.830;2023-05-21T07:00:01;16.20;99.90
23755;DHT22;12057;52.042;6.830;2023-05-21T07:05:02;16.40;99.90
23755;DHT22;12057;52.042;6.830;2023-05-21T07:10:03;16.30;99.90
23755;DHT22;12057;52.042;6.830;2023-05-21T07:15:04;16.40;99.90
23755;DHT22;12057;52.042;6.830;2023-05-21T07:20:16;16.50;99.90
23755;DHT22;12057;52.042;6.830;2023-05-21T07:25:17;16.70;99.90
23755;DHT22;12057;52.042;6.830;2023-05-21T07:30:18;17.00;99.90
23755;DHT22;12057;52.042;6.830;2023-05-21T07:35:20;17.30;99.90
23755;DHT22;12057;52.042;6.830;2023-05-21T07:40:21;17.10;99.90
23755;DHT22;12057;52.042;6.830;2023-05-21T07:45:22;17.00;99.90
23755;DHT22;12057;52.042;6.830;2023-05-21T07:50:23;17.20;99.90
23755;DHT22;12057;52.042;6.830;2023-05-21T07:55:24;17.40;99.90
23755;DHT22;12057;52.042;6.830;2023-05-21T08:00:25;17.90;99.90
23755;DHT22;12057;52.042;6.830;2023-05-21T08:05:26;18.10;99.90
23755;DHT22;12057;52.042;6.830;2023-05-21T08:10:26;18.40;99.90
23755;DHT22;12057;52.042;6.830;2023-05-21T08:15:27;18.60;99.90
23755;DHT22;12057;52.042;6.830;2023-05-21T08:20:28;18.60;99.90
23755;DHT22;12057;52.042;6.830;2023-05-21T08:25:30;18.90;99.90
23755;DHT22;12057;52.042;6.830;2023-05-21T08:30:31;19.00;99.90
23755;DHT22;12057;52.042;6.830;2023-05-21T08:35:32;19.10;99.90
23755;DHT22;12057;52.042;6.830;2023-05-21T08:40:33;19.10;99.90
23755;DHT22;12057;52.042;6.830;2023-05-21T08:45:35;19.10;99.90
23755;DHT22;12057;52.042;6.830;2023-05-21T08:50:41;19.30;99.90
23755;DHT22;12057;52.042;6.830;2023-05-21T08:55:42;19.30;99.90
23755;DHT22;12057;52.042;6.830;2023-05-21T09:00:46;19.40;99.90
23755;DHT22;12057;52.042;6.830;2023-05-21T09:05:54;19.30;99.90
23755;DHT22;12057;52.042;6.830;2023-05-21T09:10:59;19.30;99.90
23755;DHT22;12057;52.042;6.830;2023-05-21T09:16:00;19.10;99.90
23755;DHT22;12057;52.042;6.830;2023-05-21T09:21:28;19.40;99.90
23755;DHT22;12057;52.042;6.830;2023-05-21T09:26:29;19.90;99.90
23755;DHT22;12057;52.042;6.830;2023-05-21T09:31:30;20.40;99.90
23755;DHT22;12057;52.042;6.830;2023-05-21T09:36:32;20.80;99.90
23755;DHT22;12057;52.042;6.830;2023-05-21T09:41:36;21.10;99.90
23755;DHT22;12057;52.042;6.830;2023-05-21T09:46:40;20.90;99.90
23755;DHT22;12057;52.042;6.830;2023-05-21T09:51:42;21.20;99.90
23755;DHT22;12057;52.042;6.830;2023-05-21T09:56:45;21.70;99.90
23755;DHT22;12057;52.042;6.830;2023-05-21T10:01:45;21.80;99.90
23755;DHT22;12057;52.042;6.830;2023-05-21T10:06:46;22.10;99.90
23755;DHT22;12057;52.042;6.830;2023-05-21T10:11:52;22.30;99.90
23755;DHT22;12057;52.042;6.830;2023-05-21T10:16:53;22.80;99.90
23755;DHT22;12057;52.042;6.830;2023-05-21T10:21:55;22.40;99.90
23755;DHT22;12057;52.042;6.830;2023-05-21T10:26:56;22.40;99.90
23755;DHT22;12057;52.042;6.830;2023-05-21T10:31:59;22.80;99.90
23755;DHT22;12057;52.042;6.830;2023-05-21T10:37:01;22.90;99.90
23755;DHT22;12057;52.042;6.830;2023-05-21T11:03:21;23.60;99.90
23755;DHT22;12057;52.042;6.830;2023-05-21T11:08:27;23.50;99.90
23755;DHT22;12057;52.042;6.830;2023-05-21T11:13:47;23.30;99.90
23755;DHT22;12057;52.042;6.830;2023-05-21T11:24:00;23.90;99.90
23755;DHT22;12057;52.042;6.830;2023-05-21T11:34:18;23.80;99.90
23755;DHT22;12057;52.042;6.830;2023-05-21T11:39:24;23.40;99.90
23755;DHT22;12057;52.042;6.830;2023-05-21T11:44:44;23.80;99.90
23755;DHT22;12057;52.042;6.830;2023-05-21T11:49:45;24.10;99.90
23755;DHT22;12057;52.042;6.830;2023-05-21T11:54:49;24.30;99.90
23755;DHT22;12057;52.042;6.830;2023-05-21T11:59:51;24.30;99.90
23755;DHT22;12057;52.042;6.830;2023-05-21T12:04:51;24.30;99.90
23755;DHT22;12057;52.042;6.830;2023-05-21T12:09:52;24.30;99.90
23755;DHT22;12057;52.042;6.830;2023-05-21T12:14:54;24.20;99.90
23755;DHT22;12057;52.042;6.830;2023-05-21T12:19:55;24.10;99.90
23755;DHT22;12057;52.042;6.830;2023-05-21T12:24:56;24.30;99.90
23755;DHT22;12057;52.042;6.830;2023-05-21T12:29:59;24.40;99.90
23755;DHT22;12057;52.042;6.830;2023-05-21T12:35:00;24.60;99.90
23755;DHT22;12057;52.042;6.830;2023-05-21T12:40:03;24.70;99.90
23755;DHT22;12057;52.042;6.830;2023-05-21T12:45:11;24.30;99.90
23755;DHT22;12057;52.042;6.830;2023-05-21T12:50:12;24.10;99.90
23755;DHT22;12057;52.042;6.830;2023-05-21T12:55:14;24.30;99.90
23755;DHT22;12057;52.042;6.830;2023-05-21T13:00:14;24.80;99.90
23755;DHT22;12057;52.042;6.830;2023-05-21T13:05:22;25.10;99.90
23755;DHT22;12057;52.042;6.830;2023-05-21T13:10:23;25.10;99.90
23755;DHT22;12057;52.042;6.830;2023-05-21T13:15:24;25.70;99.90
23755;DHT22;12057;52.042;6.830;2023-05-21T13:20:24;25.70;99.90
23755;DHT22;12057;52.042;6.830;2023-05-21T13:25:26;25.30;99.90
23755;DHT22;12057;52.042;6.830;2023-05-21T13:30:31;24.90;99.90
23755;DHT22;12057;52.042;6.830;2023-05-21T13:35:35;24.70;99.90
23755;DHT22;12057;52.042;6.830;2023-05-21T13:40:36;25.20;99.90
23755;DHT22;12057;52.042;6.830;2023-05-21T13:45:40;25.30;99.90
23755;DHT22;12057;52.042;6.830;2023-05-21T13:50:41;25.30;99.90
23755;DHT22;12057;52.042;6.830;2023-05-21T13:55:42;25.30;99.90
23755;DHT22;12057;52.042;6.830;2023-05-21T14:00:43;25.10;99.90
23755;DHT22;12057;52.042;6.830;2023-05-21T14:05:43;24.90;99.90
23755;DHT22;12057;52.042;6.830;2023-05-21T14:10:45;24.80;99.90
23755;DHT22;12057;52.042;6.830;2023-05-21T14:15:46;25.20;99.90
23755;DHT22;12057;52.042;6.830;2023-05-21T14:20:47;25.50;99.90
23755;DHT22;12057;52.042;6.830;2023-05-21T14:25:48;25.40;99.90
23755;DHT22;12057;52.042;6.830;2023-05-21T14:30:49;25.00;99.90
23755;DHT22;12057;52.042;6.830;2023-05-21T14:35:50;24.50;99.90
23755;DHT22;12057;52.042;6.830;2023-05-21T14:40:50;24.50;99.90
23755;DHT22;12057;52.042;6.830;2023-05-21T14:45:51;24.90;99.90
23755;DHT22;12057;52.042;6.830;2023-05-21T14:50:52;24.90;99.90
23755;DHT22;12057;52.042;6.830;2023-05-21T14:55:53;24.70;99.90
23755;DHT22;12057;52.042;6.830;2023-05-21T15:00:55;24.50;99.90
23755;DHT22;12057;52.042;6.830;2023-05-21T15:05:56;24.70;99.90
23755;DHT22;12057;52.042;6.830;2023-05-21T15:10:58;24.90;99.90
23755;DHT22;12057;52.042;6.830;2023-05-21T15:15:58;25.10;99.90
23755;DHT22;12057;52.042;6.830;2023-05-21T15:20:59;24.80;99.90
23755;DHT22;12057;52.042;6.830;2023-05-21T15:26:00;25.20;99.90
23755;DHT22;12057;52.042;6.830;2023-05-21T15:31:01;25.50;99.90
23755;DHT22;12057;52.042;6.830;2023-05-21T15:36:02;25.40;99.90
23755;DHT22;12057;52.042;6.830;2023-05-21T15:41:04;25.20;99.90
23755;DHT22;12057;52.042;6.830;2023-05-21T15:46:05;24.90;99.90
23755;DHT22;12057;52.042;6.830;2023-05-21T15:51:09;25.00;99.90
23755;DHT22;12057;52.042;6.830;2023-05-21T15:56:10;25.00;99.90
23755;DHT22;12057;52.042;6.830;2023-05-21T16:01:10;25.00;99.90
23755;DHT22;12057;52.042;6.830;2023-05-21T16:06:11;25.00;99.90
23755;DHT22;12057;52.042;6.830;2023-05-21T16:11:12;24.60;99.90
23755;DHT22;12057;52.042;6.830;2023-05-21T16:16:13;24.80;99.90
23755;DHT22;12057;52.042;6.830;2023-05-21T16:21:14;24.50;99.90
23755;DHT22;12057;52.042;6.830;2023-05-21T16:26:15;24.60;99.90
23755;DHT22;12057;52.042;6.830;2023-05-21T16:31:19;24.70;99.90
23755;DHT22;12057;52.042;6.830;2023-05-21T16:36:20;24.60;99.90
23755;DHT22;12057;52.042;6.830;2023-05-21T16:41:21;24.30;99.90
23755;DHT22;12057;52.042;6.830;2023-05-21T16:46:22;24.30;99.90
23755;DHT22;12057;52.042;6.830;2023-05-21T16:51:22;24.40;99.90
23755;DHT22;12057;52.042;6.830;2023-05-21T16:56:23;24.20;99.90
23755;DHT22;12057;52.042;6.830;2023-05-21T17:01:24;24.20;99.90
23755;DHT22;12057;52.042;6.830;2023-05-21T17:06:25;24.00;99.90
23755;DHT22;12057;52.042;6.830;2023-05-21T17:11:26;24.10;99.90
23755;DHT22;12057;52.042;6.830;2023-05-21T17:16:26;24.20;99.90
23755;DHT22;12057;52.042;6.830;2023-05-21T17:21:27;23.90;99.90
23755;DHT22;12057;52.042;6.830;2023-05-21T17:26:28;24.00;99.90
23755;DHT22;12057;52.042;6.830;2023-05-21T17:31:28;24.10;99.90
23755;DHT22;12057;52.042;6.830;2023-05-21T17:36:31;24.10;99.90
23755;DHT22;12057;52.042;6.830;2023-05-21T17:41:32;24.00;99.90
23755;DHT22;12057;52.042;6.830;2023-05-21T17:46:33;24.00;99.90
23755;DHT22;12057;52.042;6.830;2023-05-21T17:51:34;23.90;99.90
23755;DHT22;12057;52.042;6.830;2023-05-21T17:56:36;23.80;99.90
23755;DHT22;12057;52.042;6.830;2023-05-21T18:01:39;23.70;99.90
23755;DHT22;12057;52.042;6.830;2023-05-21T18:06:41;23.80;99.90
23755;DHT22;12057;52.042;6.830;2023-05-21T18:11:42;23.70;99.90
23755;DHT22;12057;52.042;6.830;2023-05-21T18:16:46;23.60;99.90
23755;DHT22;12057;52.042;6.830;2023-05-21T18:21:47;23.50;99.90
23755;DHT22;12057;52.042;6.830;2023-05-21T18:26:48;23.50;99.90
23755;DHT22;12057;52.042;6.830;2023-05-21T18:31:49;23.30;99.90
23755;DHT22;12057;52.042;6.830;2023-05-21T18:36:50;23.30;99.90
23755;DHT22;12057;52.042;6.830;2023-05-21T18:41:53;23.30;99.90
23755;DHT22;12057;52.042;6.830;2023-05-21T18:46:55;23.10;99.90
23755;DHT22;12057;52.042;6.830;2023-05-21T18:51:57;23.00;99.90
23755;DHT22;12057;52.042;6.830;2023-05-21T18:57:00;23.00;99.90
23755;DHT22;12057;52.042;6.830;2023-05-21T19:02:02;22.80;99.90
23755;DHT22;12057;52.042;6.830;2023-05-21T19:07:06;22.70;99.90
23755;DHT22;12057;52.042;6.830;2023-05-21T19:12:07;22.50;99.90
23755;DHT22;12057;52.042;6.830;2023-05-21T19:17:08;22.60;99.90
23755;DHT22;12057;52.042;6.830;2023-05-21T19:22:09;22.60;99.90
23755;DHT22;12057;52.042;6.830;2023-05-21T19:27:11;22.50;99.90
23755;DHT22;12057;52.042;6.830;2023-05-21T19:32:13;22.50;99.90
23755;DHT22;12057;52.042;6.830;2023-05-21T19:37:15;22.30;99.90
23755;DHT22;12057;52.042;6.830;2023-05-21T19:42:17;22.20;99.90
23755;DHT22;12057;52.042;6.830;2023-05-21T19:47:18;22.10;99.90
23755;DHT22;12057;52.042;6.830;2023-05-21T19:52:18;22.00;99.90
23755;DHT22;12057;52.042;6.830;2023-05-21T19:57:22;21.90;99.90
23755;DHT22;12057;52.042;6.830;2023-05-21T20:02:23;21.80;99.90
23755;DHT22;12057;52.042;6.830;2023-05-21T20:07:24;21.60;99.90
23755;DHT22;12057;52.042;6.830;2023-05-21T20:12:25;21.60;99.90
23755;DHT22;12057;52.042;6.830;2023-05-21T20:17:26;21.50;99.90
23755;DHT22;12057;52.042;6.830;2023-05-21T20:22:28;21.50;99.90
23755;DHT22;12057;52.042;6.830;2023-05-21T20:27:28;21.40;99.90
23755;DHT22;12057;52.042;6.830;2023-05-21T20:32:29;21.30;99.90
23755;DHT22;12057;52.042;6.830;2023-05-21T20:37:30;21.20;99.90
23755;DHT22;12057;52.042;6.830;2023-05-21T20:42:34;21.00;99.90
23755;DHT22;12057;52.042;6.830;2023-05-21T20:47:35;21.00;99.90
23755;DHT22;12057;52.042;6.830;2023-05-21T20:52:37;20.90;99.90
23755;DHT22;12057;52.042;6.830;2023-05-21T20:57:38;20.80;99.90
23755;DHT22;12057;52.042;6.830;2023-05-21T21:02:42;20.70;99.90
23755;DHT22;12057;52.042;6.830;2023-05-21T21:07:43;20.60;99.90
23755;DHT22;12057;52.042;6.830;2023-05-21T21:12:45;20.50;99.90
23755;DHT22;12057;52.042;6.830;2023-05-21T21:17:46;20.50;99.90
23755;DHT22;12057;52.042;6.830;2023-05-21T21:22:48;20.40;99.90
23755;DHT22;12057;52.042;6.830;2023-05-21T21:27:49;20.40;99.90
23755;DHT22;12057;52.042;6.830;2023-05-21T21:32:50;20.40;99.90
23755;DHT22;12057;52.042;6.830;2023-05-21T21:37:50;20.20;99.90
23755;DHT22;12057;52.042;6.830;2023-05-21T21:42:51;20.20;99.90
23755;DHT22;12057;52.042;6.830;2023-05-21T21:47:52;20.10;99.90
23755;DHT22;12057;52.042;6.830;2023-05-21T21:52:53;20.10;99.90
23755;DHT22;12057;52.042;6.830;2023-05-21T21:57:55;20.10;99.90
23755;DHT22;12057;52.042;6.830;2023-05-21T22:02:56;20.00;99.90
23755;DHT22;12057;52.042;6.830;2023-05-21T22:07:57;20.00;99.90
23755;DHT22;12057;52.042;6.830;2023-05-21T22:12:58;20.00;99.90
23755;DHT22;12057;52.042;6.830;2023-05-21T22:17:58;20.00;99.90
23755;DHT22;12057;52.042;6.830;2023-05-21T22:23:01;19.80;99.90
23755;DHT22;12057;52.042;6.830;2023-05-21T22:28:02;19.80;99.90
23755;DHT22;12057;52.042;6.830;2023-05-21T22:33:06;19.80;99.90
23755;DHT22;12057;52.042;6.830;2023-05-21T22:38:07;19.70;99.90
23755;DHT22;12057;52.042;6.830;2023-05-21T22:43:07;19.70;99.90
23755;DHT22;12057;52.042;6.830;2023-05-21T22:48:08;19.60;99.90
23755;DHT22;12057;52.042;6.830;2023-05-21T22:53:09;19.50;99.90
23755;DHT22;12057;52.042;6.830;2023-05-21T22:58:10;19.50;99.90
23755;DHT22;12057;52.042;6.830;2023-05-21T23:03:11;19.50;99.90
23755;DHT22;12057;52.042;6.830;2023-05-21T23:08:11;19.40;99.90
23755;DHT22;12057;52.042;6.830;2023-05-21T23:13:12;19.50;99.90
23755;DHT22;12057;52.042;6.830;2023-05-21T23:18:13;19.50;99.90
23755;DHT22;12057;52.042;6.830;2023-05-21T23:23:14;19.40;99.90
23755;DHT22;12057;52.042;6.830;2023-05-21T23:28:14;19.50;99.90
23755;DHT22;12057;52.042;6.830;2023-05-21T23:33:15;19.50;99.90
23755;DHT22;12057;52.042;6.830;2023-05-21T23:38:16;19.50;99.90
23755;DHT22;12057;52.042;6.830;2023-05-21T23:43:17;19.40;99.90
23755;DHT22;12057;52.042;6.830;2023-05-21T23:48:18;19.40;99.90
23755;DHT22;12057;52.042;6.830;2023-05-21T23:53:19;19.40;99.90
23755;DHT22;12057;52.042;6.830;2023-05-21T23:58:23;19.40;99.90
